sensor_id;sensor_type;location;lat;lon;timestamp;P1;durP1;ratioP1;P2;durP2;ratioP2
37647;SDS011;23490;53.656;10.076;2022-08-06T00:00:16;1.50;;;1.00;;
37647;SDS011;23490;53.656;10.076;2022-08-06T00:02:42;2.75;;;1.20;;
37647;SDS011;23490;53.656;10.076;2022-08-06T00:05:07;2.92;;;1.10;;
37647;SDS011;23490;53.656;10.076;2022-08-06T00:07:34;4.07;;;1.30;;
37647;SDS011;23490;53.656;10.076;2022-08-06T00:10:00;2.63;;;0.93;;
37647;SDS011;23490;53.656;10.076;2022-08-06T00:12:25;3.05;;;1.27;;
37647;SDS011;23490;53.656;10.076;2022-08-06T00:14:51;3.08;;;0.98;;
37647;SDS011;23490;53.656;10.076;2022-08-06T00:17:16;3.20;;;1.13;;
37647;SDS011;23490;53.656;10.076;2022-08-06T00:19:43;3.22;;;1.17;;
37647;SDS011;23490;53.656;10.076;2022-08-06T00:22:09;2.95;;;1.15;;
37647;SDS011;23490;53.656;10.076;2022-08-06T00:24:34;4.25;;;1.20;;
37647;SDS011;23490;53.656;10.076;2022-08-06T00:26:59;2.17;;;1.20;;
37647;SDS011;23490;53.656;10.076;2022-08-06T00:29:25;3.72;;;1.48;;
37647;SDS011;23490;53.656;10.076;2022-08-06T00:31:50;3.88;;;0.98;;
37647;SDS011;23490;53.656;10.076;2022-08-06T00:34:16;1.55;;;1.05;;
37647;SDS011;23490;53.656;10.076;2022-08-06T00:36:41;3.20;;;1.02;;
37647;SDS011;23490;53.656;10.076;2022-08-06T00:39:07;2.33;;;1.00;;
37647;SDS011;23490;53.656;10.076;2022-08-06T00:41:33;4.30;;;1.10;;
37647;SDS011;23490;53.656;10.076;2022-08-06T00:43:59;4.15;;;1.63;;
37647;SDS011;23490;53.656;10.076;2022-08-06T00:46:25;3.67;;;1.27;;
37647;SDS011;23490;53.656;10.076;2022-08-06T00:48:51;2.20;;;0.90;;
37647;SDS011;23490;53.656;10.076;2022-08-06T00:51:17;2.45;;;1.10;;
37647;SDS011;23490;53.656;10.076;2022-08-06T00:53:43;2.38;;;0.98;;
37647;SDS011;23490;53.656;10.076;2022-08-06T00:56:08;3.95;;;1.17;;
37647;SDS011;23490;53.656;10.076;2022-08-06T00:58:33;4.32;;;1.23;;
37647;SDS011;23490;53.656;10.076;2022-08-06T01:01:00;2.20;;;1.20;;
37647;SDS011;23490;53.656;10.076;2022-08-06T01:03:25;3.22;;;1.10;;
37647;SDS011;23490;53.656;10.076;2022-08-06T01:05:50;2.38;;;1.40;;
37647;SDS011;23490;53.656;10.076;2022-08-06T01:08:16;2.63;;;1.10;;
37647;SDS011;23490;53.656;10.076;2022-08-06T01:10:41;2.63;;;1.00;;
37647;SDS011;23490;53.656;10.076;2022-08-06T01:13:07;1.92;;;1.05;;
37647;SDS011;23490;53.656;10.076;2022-08-06T01:15:33;2.65;;;1.10;;
37647;SDS011;23490;53.656;10.076;2022-08-06T01:18:11;8.02;;;1.42;;
37647;SDS011;23490;53.656;10.076;2022-08-06T01:26:49;6.75;;;1.05;;
37647;SDS011;23490;53.656;10.076;2022-08-06T01:29:32;2.53;;;1.10;;
37647;SDS011;23490;53.656;10.076;2022-08-06T01:32:06;4.05;;;1.20;;
37647;SDS011;23490;53.656;10.076;2022-08-06T01:34:43;1.25;;;1.00;;
37647;SDS011;23490;53.656;10.076;2022-08-06T01:37:30;6.05;;;1.70;;
37647;SDS011;23490;53.656;10.076;2022-08-06T01:40:02;4.90;;;1.13;;
37647;SDS011;23490;53.656;10.076;2022-08-06T01:42:31;2.50;;;1.30;;
37647;SDS011;23490;53.656;10.076;2022-08-06T01:44:58;1.88;;;1.10;;
37647;SDS011;23490;53.656;10.076;2022-08-06T01:47:29;4.93;;;1.00;;
37647;SDS011;23490;53.656;10.076;2022-08-06T01:49:57;4.78;;;1.23;;
37647;SDS011;23490;53.656;10.076;2022-08-06T01:52:27;5.18;;;1.10;;
37647;SDS011;23490;53.656;10.076;2022-08-06T01:54:56;8.70;;;1.70;;
37647;SDS011;23490;53.656;10.076;2022-08-06T01:57:23;4.60;;;1.40;;
37647;SDS011;23490;53.656;10.076;2022-08-06T01:59:52;3.63;;;1.55;;
37647;SDS011;23490;53.656;10.076;2022-08-06T02:02:20;5.82;;;1.20;;
37647;SDS011;23490;53.656;10.076;2022-08-06T02:04:47;2.63;;;1.08;;
37647;SDS011;23490;53.656;10.076;2022-08-06T02:07:16;3.38;;;1.30;;
37647;SDS011;23490;53.656;10.076;2022-08-06T02:09:44;2.40;;;1.17;;
37647;SDS011;23490;53.656;10.076;2022-08-06T02:12:18;3.67;;;1.20;;
37647;SDS011;23490;53.656;10.076;2022-08-06T02:14:57;5.43;;;1.30;;
37647;SDS011;23490;53.656;10.076;2022-08-06T02:17:25;3.03;;;1.08;;
37647;SDS011;23490;53.656;10.076;2022-08-06T02:19:53;5.05;;;1.60;;
37647;SDS011;23490;53.656;10.076;2022-08-06T02:22:20;2.70;;;1.20;;
37647;SDS011;23490;53.656;10.076;2022-08-06T02:24:47;2.33;;;1.15;;
37647;SDS011;23490;53.656;10.076;2022-08-06T02:27:14;3.40;;;1.20;;
37647;SDS011;23490;53.656;10.076;2022-08-06T02:29:42;3.58;;;1.00;;
37647;SDS011;23490;53.656;10.076;2022-08-06T02:32:10;2.05;;;1.20;;
37647;SDS011;23490;53.656;10.076;2022-08-06T02:34:38;3.70;;;1.25;;
37647;SDS011;23490;53.656;10.076;2022-08-06T02:37:13;1.95;;;1.20;;
37647;SDS011;23490;53.656;10.076;2022-08-06T02:39:46;4.75;;;1.33;;
37647;SDS011;23490;53.656;10.076;2022-08-06T02:42:17;2.88;;;1.08;;
37647;SDS011;23490;53.656;10.076;2022-08-06T02:44:51;3.35;;;1.40;;
37647;SDS011;23490;53.656;10.076;2022-08-06T02:47:25;3.13;;;1.20;;
37647;SDS011;23490;53.656;10.076;2022-08-06T02:49:57;2.90;;;1.52;;
37647;SDS011;23490;53.656;10.076;2022-08-06T02:52:28;3.33;;;1.10;;
37647;SDS011;23490;53.656;10.076;2022-08-06T02:55:05;3.90;;;1.50;;
37647;SDS011;23490;53.656;10.076;2022-08-06T02:57:39;3.25;;;1.70;;
37647;SDS011;23490;53.656;10.076;2022-08-06T03:00:09;3.40;;;1.63;;
37647;SDS011;23490;53.656;10.076;2022-08-06T03:02:36;3.22;;;1.27;;
37647;SDS011;23490;53.656;10.076;2022-08-06T03:05:05;3.58;;;1.50;;
37647;SDS011;23490;53.656;10.076;2022-08-06T03:07:33;2.47;;;1.25;;
37647;SDS011;23490;53.656;10.076;2022-08-06T03:12:29;2.80;;;1.05;;
37647;SDS011;23490;53.656;10.076;2022-08-06T03:14:55;2.25;;;1.50;;
37647;SDS011;23490;53.656;10.076;2022-08-06T03:17:24;2.77;;;1.60;;
37647;SDS011;23490;53.656;10.076;2022-08-06T03:19:52;4.25;;;1.63;;
37647;SDS011;23490;53.656;10.076;2022-08-06T03:22:19;2.90;;;1.75;;
37647;SDS011;23490;53.656;10.076;2022-08-06T03:24:45;5.20;;;1.70;;
37647;SDS011;23490;53.656;10.076;2022-08-06T03:27:12;4.22;;;1.73;;
37647;SDS011;23490;53.656;10.076;2022-08-06T03:29:41;3.88;;;1.58;;
37647;SDS011;23490;53.656;10.076;2022-08-06T03:32:07;2.55;;;1.63;;
37647;SDS011;23490;53.656;10.076;2022-08-06T03:34:34;2.63;;;1.55;;
37647;SDS011;23490;53.656;10.076;2022-08-06T03:37:01;6.75;;;2.20;;
37647;SDS011;23490;53.656;10.076;2022-08-06T03:39:28;3.13;;;1.63;;
37647;SDS011;23490;53.656;10.076;2022-08-06T03:41:55;5.25;;;1.67;;
37647;SDS011;23490;53.656;10.076;2022-08-06T03:44:21;3.60;;;1.55;;
37647;SDS011;23490;53.656;10.076;2022-08-06T03:46:58;4.63;;;1.70;;
37647;SDS011;23490;53.656;10.076;2022-08-06T03:49:30;6.25;;;1.65;;
37647;SDS011;23490;53.656;10.076;2022-08-06T03:51:59;3.25;;;1.55;;
37647;SDS011;23490;53.656;10.076;2022-08-06T03:54:31;4.68;;;1.70;;
37647;SDS011;23490;53.656;10.076;2022-08-06T03:57:00;7.95;;;1.83;;
37647;SDS011;23490;53.656;10.076;2022-08-06T04:01:55;3.50;;;1.38;;
37647;SDS011;23490;53.656;10.076;2022-08-06T04:04:23;3.70;;;1.90;;
37647;SDS011;23490;53.656;10.076;2022-08-06T04:06:51;3.83;;;1.65;;
37647;SDS011;23490;53.656;10.076;2022-08-06T04:09:18;3.17;;;1.60;;
37647;SDS011;23490;53.656;10.076;2022-08-06T04:11:44;3.22;;;1.55;;
37647;SDS011;23490;53.656;10.076;2022-08-06T04:14:11;4.43;;;1.92;;
37647;SDS011;23490;53.656;10.076;2022-08-06T04:16:38;4.22;;;1.50;;
37647;SDS011;23490;53.656;10.076;2022-08-06T04:19:05;4.60;;;1.60;;
37647;SDS011;23490;53.656;10.076;2022-08-06T04:21:31;3.15;;;1.30;;
37647;SDS011;23490;53.656;10.076;2022-08-06T04:23:57;5.10;;;1.73;;
37647;SDS011;23490;53.656;10.076;2022-08-06T04:26:23;3.00;;;1.75;;
37647;SDS011;23490;53.656;10.076;2022-08-06T04:28:50;4.22;;;1.50;;
37647;SDS011;23490;53.656;10.076;2022-08-06T04:31:18;5.97;;;1.88;;
37647;SDS011;23490;53.656;10.076;2022-08-06T04:33:45;2.83;;;1.70;;
37647;SDS011;23490;53.656;10.076;2022-08-06T04:36:11;2.97;;;1.63;;
37647;SDS011;23490;53.656;10.076;2022-08-06T04:38:37;4.15;;;1.80;;
37647;SDS011;23490;53.656;10.076;2022-08-06T04:41:03;2.95;;;1.52;;
37647;SDS011;23490;53.656;10.076;2022-08-06T04:43:30;4.30;;;1.80;;
37647;SDS011;23490;53.656;10.076;2022-08-06T04:45:55;5.00;;;1.80;;
37647;SDS011;23490;53.656;10.076;2022-08-06T04:48:21;3.58;;;1.67;;
37647;SDS011;23490;53.656;10.076;2022-08-06T04:50:48;3.88;;;1.73;;
37647;SDS011;23490;53.656;10.076;2022-08-06T04:53:14;4.03;;;1.90;;
37647;SDS011;23490;53.656;10.076;2022-08-06T04:55:43;6.18;;;1.80;;
37647;SDS011;23490;53.656;10.076;2022-08-06T04:58:10;5.00;;;2.15;;
37647;SDS011;23490;53.656;10.076;2022-08-06T05:00:37;4.90;;;1.90;;
37647;SDS011;23490;53.656;10.076;2022-08-06T05:03:05;5.63;;;2.30;;
37647;SDS011;23490;53.656;10.076;2022-08-06T05:05:31;7.47;;;3.42;;
37647;SDS011;23490;53.656;10.076;2022-08-06T05:08:02;5.25;;;2.90;;
37647;SDS011;23490;53.656;10.076;2022-08-06T05:10:32;7.93;;;3.30;;
37647;SDS011;23490;53.656;10.076;2022-08-06T05:13:20;6.20;;;3.20;;
37647;SDS011;23490;53.656;10.076;2022-08-06T05:15:49;9.15;;;2.97;;
37647;SDS011;23490;53.656;10.076;2022-08-06T05:18:23;5.70;;;3.50;;
37647;SDS011;23490;53.656;10.076;2022-08-06T05:20:51;4.45;;;2.40;;
37647;SDS011;23490;53.656;10.076;2022-08-06T05:23:19;5.55;;;3.05;;
37647;SDS011;23490;53.656;10.076;2022-08-06T05:25:57;5.57;;;2.30;;
37647;SDS011;23490;53.656;10.076;2022-08-06T05:28:23;5.15;;;2.22;;
37647;SDS011;23490;53.656;10.076;2022-08-06T05:30:49;5.90;;;2.47;;
37647;SDS011;23490;53.656;10.076;2022-08-06T05:33:26;4.50;;;1.90;;
37647;SDS011;23490;53.656;10.076;2022-08-06T05:35:52;8.43;;;2.33;;
37647;SDS011;23490;53.656;10.076;2022-08-06T05:38:18;2.85;;;1.80;;
37647;SDS011;23490;53.656;10.076;2022-08-06T05:40:43;5.15;;;1.60;;
37647;SDS011;23490;53.656;10.076;2022-08-06T05:43:09;5.35;;;1.60;;
37647;SDS011;23490;53.656;10.076;2022-08-06T05:45:34;4.07;;;1.80;;
37647;SDS011;23490;53.656;10.076;2022-08-06T05:48:01;4.35;;;1.70;;
37647;SDS011;23490;53.656;10.076;2022-08-06T05:50:30;6.95;;;1.55;;
37647;SDS011;23490;53.656;10.076;2022-08-06T05:53:08;3.83;;;1.75;;
37647;SDS011;23490;53.656;10.076;2022-08-06T05:55:57;2.45;;;1.20;;
37647;SDS011;23490;53.656;10.076;2022-08-06T05:58:31;4.15;;;1.30;;
37647;SDS011;23490;53.656;10.076;2022-08-06T06:01:03;2.75;;;0.93;;
37647;SDS011;23490;53.656;10.076;2022-08-06T06:03:30;4.28;;;1.20;;
37647;SDS011;23490;53.656;10.076;2022-08-06T06:05:56;1.50;;;0.95;;
37647;SDS011;23490;53.656;10.076;2022-08-06T06:08:25;3.22;;;0.82;;
37647;SDS011;23490;53.656;10.076;2022-08-06T06:10:51;7.13;;;1.70;;
37647;SDS011;23490;53.656;10.076;2022-08-06T06:13:17;2.47;;;1.08;;
37647;SDS011;23490;53.656;10.076;2022-08-06T06:16:00;2.30;;;1.17;;
37647;SDS011;23490;53.656;10.076;2022-08-06T06:21:33;1.88;;;1.33;;
37647;SDS011;23490;53.656;10.076;2022-08-06T06:24:23;3.58;;;0.90;;
37647;SDS011;23490;53.656;10.076;2022-08-06T06:26:57;1.88;;;0.70;;
37647;SDS011;23490;53.656;10.076;2022-08-06T06:35:13;2.47;;;0.70;;
37647;SDS011;23490;53.656;10.076;2022-08-06T06:43:29;3.03;;;0.93;;
37647;SDS011;23490;53.656;10.076;2022-08-06T06:46:02;1.42;;;0.60;;
37647;SDS011;23490;53.656;10.076;2022-08-06T06:49:27;2.38;;;0.93;;
37647;SDS011;23490;53.656;10.076;2022-08-06T06:51:41;3.60;;;0.95;;
37647;SDS011;23490;53.656;10.076;2022-08-06T06:54:11;1.13;;;0.52;;
37647;SDS011;23490;53.656;10.076;2022-08-06T06:56:44;2.88;;;1.10;;
37647;SDS011;23490;53.656;10.076;2022-08-06T06:59:16;0.70;;;0.60;;
37647;SDS011;23490;53.656;10.076;2022-08-06T07:01:46;3.72;;;0.90;;
37647;SDS011;23490;53.656;10.076;2022-08-06T07:04:14;3.03;;;0.70;;
37647;SDS011;23490;53.656;10.076;2022-08-06T07:06:42;2.07;;;1.17;;
37647;SDS011;23490;53.656;10.076;2022-08-06T07:09:15;2.10;;;0.60;;
37647;SDS011;23490;53.656;10.076;2022-08-06T07:11:45;2.00;;;0.63;;
37647;SDS011;23490;53.656;10.076;2022-08-06T07:14:15;3.42;;;0.95;;
37647;SDS011;23490;53.656;10.076;2022-08-06T07:16:42;2.45;;;0.82;;
37647;SDS011;23490;53.656;10.076;2022-08-06T07:19:09;2.05;;;0.60;;
37647;SDS011;23490;53.656;10.076;2022-08-06T07:21:36;3.70;;;1.00;;
37647;SDS011;23490;53.656;10.076;2022-08-06T07:24:04;4.38;;;0.70;;
37647;SDS011;23490;53.656;10.076;2022-08-06T07:26:30;4.32;;;0.63;;
37647;SDS011;23490;53.656;10.076;2022-08-06T07:28:57;6.97;;;1.20;;
37647;SDS011;23490;53.656;10.076;2022-08-06T07:31:25;1.27;;;0.47;;
37647;SDS011;23490;53.656;10.076;2022-08-06T07:33:51;2.25;;;0.73;;
37647;SDS011;23490;53.656;10.076;2022-08-06T07:36:18;5.95;;;0.90;;
37647;SDS011;23490;53.656;10.076;2022-08-06T07:38:47;2.00;;;0.55;;
37647;SDS011;23490;53.656;10.076;2022-08-06T07:41:13;2.97;;;0.47;;
37647;SDS011;23490;53.656;10.076;2022-08-06T07:43:42;2.63;;;0.63;;
37647;SDS011;23490;53.656;10.076;2022-08-06T07:46:13;2.72;;;0.85;;
37647;SDS011;23490;53.656;10.076;2022-08-06T07:49:03;1.08;;;0.60;;
37647;SDS011;23490;53.656;10.076;2022-08-06T07:51:30;2.78;;;0.50;;
37647;SDS011;23490;53.656;10.076;2022-08-06T07:53:59;2.28;;;0.60;;
37647;SDS011;23490;53.656;10.076;2022-08-06T07:56:26;3.35;;;0.60;;
37647;SDS011;23490;53.656;10.076;2022-08-06T07:58:51;3.42;;;1.05;;
37647;SDS011;23490;53.656;10.076;2022-08-06T08:01:18;6.68;;;0.70;;
37647;SDS011;23490;53.656;10.076;2022-08-06T08:03:45;2.90;;;0.90;;
37647;SDS011;23490;53.656;10.076;2022-08-06T08:06:30;2.47;;;0.70;;
37647;SDS011;23490;53.656;10.076;2022-08-06T08:11:37;3.60;;;0.70;;
37647;SDS011;23490;53.656;10.076;2022-08-06T08:14:06;2.33;;;0.47;;
37647;SDS011;23490;53.656;10.076;2022-08-06T08:16:33;3.58;;;0.60;;
37647;SDS011;23490;53.656;10.076;2022-08-06T08:18:59;2.90;;;0.90;;
37647;SDS011;23490;53.656;10.076;2022-08-06T08:21:24;1.95;;;0.52;;
37647;SDS011;23490;53.656;10.076;2022-08-06T08:23:51;1.25;;;0.50;;
37647;SDS011;23490;53.656;10.076;2022-08-06T08:26:16;2.95;;;0.60;;
37647;SDS011;23490;53.656;10.076;2022-08-06T08:28:42;1.40;;;0.52;;
37647;SDS011;23490;53.656;10.076;2022-08-06T08:31:07;1.92;;;0.60;;
37647;SDS011;23490;53.656;10.076;2022-08-06T08:33:33;2.20;;;0.70;;
37647;SDS011;23490;53.656;10.076;2022-08-06T08:36:00;4.40;;;0.63;;
37647;SDS011;23490;53.656;10.076;2022-08-06T08:38:30;1.15;;;0.60;;
37647;SDS011;23490;53.656;10.076;2022-08-06T08:40:59;1.42;;;0.55;;
37647;SDS011;23490;53.656;10.076;2022-08-06T08:43:40;1.90;;;0.60;;
37647;SDS011;23490;53.656;10.076;2022-08-06T08:46:10;2.50;;;0.60;;
37647;SDS011;23490;53.656;10.076;2022-08-06T08:48:37;2.47;;;0.50;;
37647;SDS011;23490;53.656;10.076;2022-08-06T08:51:03;1.45;;;0.47;;
37647;SDS011;23490;53.656;10.076;2022-08-06T08:53:33;1.83;;;0.50;;
37647;SDS011;23490;53.656;10.076;2022-08-06T08:56:01;2.63;;;0.60;;
37647;SDS011;23490;53.656;10.076;2022-08-06T08:58:27;3.13;;;0.77;;
37647;SDS011;23490;53.656;10.076;2022-08-06T09:00:53;1.58;;;0.50;;
37647;SDS011;23490;53.656;10.076;2022-08-06T09:03:19;0.60;;;0.30;;
37647;SDS011;23490;53.656;10.076;2022-08-06T09:05:44;1.35;;;0.50;;
37647;SDS011;23490;53.656;10.076;2022-08-06T09:08:10;1.45;;;0.40;;
37647;SDS011;23490;53.656;10.076;2022-08-06T09:10:36;0.77;;;0.35;;
37647;SDS011;23490;53.656;10.076;2022-08-06T09:13:02;2.00;;;0.50;;
37647;SDS011;23490;53.656;10.076;2022-08-06T09:15:28;2.40;;;0.70;;
37647;SDS011;23490;53.656;10.076;2022-08-06T09:17:53;1.67;;;0.40;;
37647;SDS011;23490;53.656;10.076;2022-08-06T09:20:19;3.33;;;1.05;;
37647;SDS011;23490;53.656;10.076;2022-08-06T09:22:45;3.30;;;0.60;;
37647;SDS011;23490;53.656;10.076;2022-08-06T09:28:05;1.77;;;0.55;;
37647;SDS011;23490;53.656;10.076;2022-08-06T09:30:34;2.58;;;0.40;;
37647;SDS011;23490;53.656;10.076;2022-08-06T09:32:59;2.10;;;0.50;;
37647;SDS011;23490;53.656;10.076;2022-08-06T09:35:26;2.75;;;0.55;;
37647;SDS011;23490;53.656;10.076;2022-08-06T09:38:03;1.25;;;0.50;;
37647;SDS011;23490;53.656;10.076;2022-08-06T09:40:30;2.25;;;0.50;;
37647;SDS011;23490;53.656;10.076;2022-08-06T09:42:56;3.55;;;0.57;;
37647;SDS011;23490;53.656;10.076;2022-08-06T09:45:23;1.00;;;0.50;;
37647;SDS011;23490;53.656;10.076;2022-08-06T09:48:03;3.53;;;0.90;;
37647;SDS011;23490;53.656;10.076;2022-08-06T09:50:43;2.33;;;0.40;;
37647;SDS011;23490;53.656;10.076;2022-08-06T09:53:10;2.95;;;0.70;;
37647;SDS011;23490;53.656;10.076;2022-08-06T09:55:37;4.68;;;1.23;;
37647;SDS011;23490;53.656;10.076;2022-08-06T09:58:02;1.83;;;0.77;;
37647;SDS011;23490;53.656;10.076;2022-08-06T10:00:30;1.95;;;0.70;;
37647;SDS011;23490;53.656;10.076;2022-08-06T10:02:57;2.90;;;0.65;;
37647;SDS011;23490;53.656;10.076;2022-08-06T10:05:23;2.40;;;1.08;;
37647;SDS011;23490;53.656;10.076;2022-08-06T10:08:03;3.03;;;0.70;;
37647;SDS011;23490;53.656;10.076;2022-08-06T10:10:43;2.13;;;0.60;;
37647;SDS011;23490;53.656;10.076;2022-08-06T10:13:17;3.13;;;0.40;;
37647;SDS011;23490;53.656;10.076;2022-08-06T10:15:49;1.23;;;0.50;;
37647;SDS011;23490;53.656;10.076;2022-08-06T10:21:06;2.63;;;0.70;;
37647;SDS011;23490;53.656;10.076;2022-08-06T10:23:38;0.90;;;0.50;;
37647;SDS011;23490;53.656;10.076;2022-08-06T10:26:06;3.17;;;0.60;;
37647;SDS011;23490;53.656;10.076;2022-08-06T10:28:35;4.38;;;0.80;;
37647;SDS011;23490;53.656;10.076;2022-08-06T10:31:02;2.97;;;0.82;;
37647;SDS011;23490;53.656;10.076;2022-08-06T10:33:31;3.42;;;0.70;;
37647;SDS011;23490;53.656;10.076;2022-08-06T10:36:04;1.60;;;0.60;;
37647;SDS011;23490;53.656;10.076;2022-08-06T10:38:34;1.15;;;0.65;;
37647;SDS011;23490;53.656;10.076;2022-08-06T10:41:10;2.85;;;0.73;;
37647;SDS011;23490;53.656;10.076;2022-08-06T10:43:38;3.47;;;0.80;;
37647;SDS011;23490;53.656;10.076;2022-08-06T10:46:08;1.95;;;1.40;;
37647;SDS011;23490;53.656;10.076;2022-08-06T10:48:36;3.60;;;1.73;;
37647;SDS011;23490;53.656;10.076;2022-08-06T10:51:08;3.58;;;1.52;;
37647;SDS011;23490;53.656;10.076;2022-08-06T10:53:35;4.35;;;1.50;;
37647;SDS011;23490;53.656;10.076;2022-08-06T10:56:03;3.38;;;1.27;;
37647;SDS011;23490;53.656;10.076;2022-08-06T10:58:30;3.47;;;1.10;;
37647;SDS011;23490;53.656;10.076;2022-08-06T11:00:58;2.17;;;1.40;;
37647;SDS011;23490;53.656;10.076;2022-08-06T11:03:45;4.38;;;1.55;;
37647;SDS011;23490;53.656;10.076;2022-08-06T11:12:14;3.97;;;2.20;;
37647;SDS011;23490;53.656;10.076;2022-08-06T11:14:51;4.57;;;2.10;;
37647;SDS011;23490;53.656;10.076;2022-08-06T11:17:17;3.30;;;2.08;;
37647;SDS011;23490;53.656;10.076;2022-08-06T11:19:47;5.07;;;2.30;;
37647;SDS011;23490;53.656;10.076;2022-08-06T11:24:58;4.35;;;2.30;;
37647;SDS011;23490;53.656;10.076;2022-08-06T11:30:23;5.10;;;2.33;;
37647;SDS011;23490;53.656;10.076;2022-08-06T11:33:05;4.38;;;2.38;;
37647;SDS011;23490;53.656;10.076;2022-08-06T11:38:06;3.70;;;2.30;;
37647;SDS011;23490;53.656;10.076;2022-08-06T11:43:48;4.43;;;1.80;;
37647;SDS011;23490;53.656;10.076;2022-08-06T11:46:30;4.20;;;2.17;;
37647;SDS011;23490;53.656;10.076;2022-08-06T11:54:07;4.05;;;2.33;;
37647;SDS011;23490;53.656;10.076;2022-08-06T12:00:21;3.05;;;1.90;;
37647;SDS011;23490;53.656;10.076;2022-08-06T12:05:05;4.10;;;2.15;;
37647;SDS011;23490;53.656;10.076;2022-08-06T12:07:32;7.18;;;2.45;;
37647;SDS011;23490;53.656;10.076;2022-08-06T12:14:53;4.35;;;2.15;;
37647;SDS011;23490;53.656;10.076;2022-08-06T12:17:24;4.25;;;2.00;;
37647;SDS011;23490;53.656;10.076;2022-08-06T12:19:53;3.05;;;1.88;;
37647;SDS011;23490;53.656;10.076;2022-08-06T12:22:20;3.53;;;1.50;;
37647;SDS011;23490;53.656;10.076;2022-08-06T12:24:54;2.72;;;1.85;;
37647;SDS011;23490;53.656;10.076;2022-08-06T12:27:22;2.30;;;1.70;;
37647;SDS011;23490;53.656;10.076;2022-08-06T12:29:53;3.60;;;2.05;;
37647;SDS011;23490;53.656;10.076;2022-08-06T12:32:38;5.45;;;2.80;;
37647;SDS011;23490;53.656;10.076;2022-08-06T12:35:08;6.57;;;2.53;;
37647;SDS011;23490;53.656;10.076;2022-08-06T12:37:36;4.43;;;2.10;;
37647;SDS011;23490;53.656;10.076;2022-08-06T12:40:05;4.57;;;2.45;;
37647;SDS011;23490;53.656;10.076;2022-08-06T12:42:51;3.65;;;2.50;;
37647;SDS011;23490;53.656;10.076;2022-08-06T12:45:23;3.92;;;2.10;;
37647;SDS011;23490;53.656;10.076;2022-08-06T12:47:56;5.13;;;2.78;;
37647;SDS011;23490;53.656;10.076;2022-08-06T12:50:24;3.50;;;2.40;;
37647;SDS011;23490;53.656;10.076;2022-08-06T12:53:02;5.10;;;2.47;;
37647;SDS011;23490;53.656;10.076;2022-08-06T12:55:28;3.10;;;2.00;;
37647;SDS011;23490;53.656;10.076;2022-08-06T12:57:58;4.30;;;2.40;;
37647;SDS011;23490;53.656;10.076;2022-08-06T13:00:25;4.55;;;2.55;;
37647;SDS011;23490;53.656;10.076;2022-08-06T13:02:51;4.97;;;2.60;;
37647;SDS011;23490;53.656;10.076;2022-08-06T13:05:17;4.05;;;2.65;;
37647;SDS011;23490;53.656;10.076;2022-08-06T13:07:43;4.50;;;2.83;;
37647;SDS011;23490;53.656;10.076;2022-08-06T13:10:10;3.83;;;2.78;;
37647;SDS011;23490;53.656;10.076;2022-08-06T13:12:36;4.60;;;2.70;;
37647;SDS011;23490;53.656;10.076;2022-08-06T13:15:09;4.68;;;3.30;;
37647;SDS011;23490;53.656;10.076;2022-08-06T13:17:39;4.70;;;3.00;;
37647;SDS011;23490;53.656;10.076;2022-08-06T13:20:05;4.15;;;2.88;;
37647;SDS011;23490;53.656;10.076;2022-08-06T13:22:31;5.43;;;3.15;;
37647;SDS011;23490;53.656;10.076;2022-08-06T13:25:13;3.75;;;2.50;;
37647;SDS011;23490;53.656;10.076;2022-08-06T13:27:41;4.10;;;2.70;;
37647;SDS011;23490;53.656;10.076;2022-08-06T13:30:07;6.30;;;3.10;;
37647;SDS011;23490;53.656;10.076;2022-08-06T13:32:34;5.70;;;2.92;;
37647;SDS011;23490;53.656;10.076;2022-08-06T13:35:01;5.65;;;2.92;;
37647;SDS011;23490;53.656;10.076;2022-08-06T13:37:51;4.70;;;2.88;;
37647;SDS011;23490;53.656;10.076;2022-08-06T13:40:18;5.78;;;3.20;;
37647;SDS011;23490;53.656;10.076;2022-08-06T13:43:02;5.10;;;3.38;;
37647;SDS011;23490;53.656;10.076;2022-08-06T13:45:28;3.60;;;2.80;;
37647;SDS011;23490;53.656;10.076;2022-08-06T13:48:03;5.75;;;3.25;;
37647;SDS011;23490;53.656;10.076;2022-08-06T13:50:37;4.82;;;3.22;;
37647;SDS011;23490;53.656;10.076;2022-08-06T13:53:08;4.80;;;3.00;;
37647;SDS011;23490;53.656;10.076;2022-08-06T13:55:35;6.20;;;3.25;;
37647;SDS011;23490;53.656;10.076;2022-08-06T13:58:01;4.85;;;3.40;;
37647;SDS011;23490;53.656;10.076;2022-08-06T14:00:26;5.55;;;3.55;;
37647;SDS011;23490;53.656;10.076;2022-08-06T14:02:52;6.65;;;3.33;;
37647;SDS011;23490;53.656;10.076;2022-08-06T14:05:19;6.90;;;3.50;;
37647;SDS011;23490;53.656;10.076;2022-08-06T14:07:45;6.70;;;3.53;;
37647;SDS011;23490;53.656;10.076;2022-08-06T14:10:10;7.22;;;3.22;;
37647;SDS011;23490;53.656;10.076;2022-08-06T14:12:36;5.57;;;3.78;;
37647;SDS011;23490;53.656;10.076;2022-08-06T14:15:03;6.50;;;3.92;;
37647;SDS011;23490;53.656;10.076;2022-08-06T14:17:29;5.47;;;3.50;;
37647;SDS011;23490;53.656;10.076;2022-08-06T14:19:54;5.00;;;3.47;;
37647;SDS011;23490;53.656;10.076;2022-08-06T14:22:19;7.68;;;3.78;;
37647;SDS011;23490;53.656;10.076;2022-08-06T14:24:45;4.95;;;3.70;;
37647;SDS011;23490;53.656;10.076;2022-08-06T14:27:11;4.82;;;3.65;;
37647;SDS011;23490;53.656;10.076;2022-08-06T14:29:37;6.38;;;3.75;;
37647;SDS011;23490;53.656;10.076;2022-08-06T14:32:03;6.22;;;3.88;;
37647;SDS011;23490;53.656;10.076;2022-08-06T14:34:29;6.50;;;3.95;;
37647;SDS011;23490;53.656;10.076;2022-08-06T14:36:55;7.10;;;3.78;;
37647;SDS011;23490;53.656;10.076;2022-08-06T14:39:20;8.35;;;4.15;;
37647;SDS011;23490;53.656;10.076;2022-08-06T14:41:45;7.10;;;4.72;;
37647;SDS011;23490;53.656;10.076;2022-08-06T14:44:30;7.60;;;4.18;;
37647;SDS011;23490;53.656;10.076;2022-08-06T14:47:14;5.72;;;4.43;;
37647;SDS011;23490;53.656;10.076;2022-08-06T14:49:39;9.13;;;4.72;;
37647;SDS011;23490;53.656;10.076;2022-08-06T14:52:05;8.63;;;4.47;;
37647;SDS011;23490;53.656;10.076;2022-08-06T14:54:31;7.63;;;4.40;;
37647;SDS011;23490;53.656;10.076;2022-08-06T14:56:57;7.85;;;4.28;;
37647;SDS011;23490;53.656;10.076;2022-08-06T14:59:23;6.55;;;4.43;;
37647;SDS011;23490;53.656;10.076;2022-08-06T15:01:50;8.02;;;4.88;;
37647;SDS011;23490;53.656;10.076;2022-08-06T15:04:20;5.82;;;4.38;;
37647;SDS011;23490;53.656;10.076;2022-08-06T15:06:46;7.32;;;4.22;;
37647;SDS011;23490;53.656;10.076;2022-08-06T15:09:12;7.57;;;3.70;;
37647;SDS011;23490;53.656;10.076;2022-08-06T15:11:37;7.00;;;4.40;;
37647;SDS011;23490;53.656;10.076;2022-08-06T15:14:03;7.35;;;4.35;;
37647;SDS011;23490;53.656;10.076;2022-08-06T15:16:29;6.47;;;4.38;;
37647;SDS011;23490;53.656;10.076;2022-08-06T15:18:54;9.23;;;4.80;;
37647;SDS011;23490;53.656;10.076;2022-08-06T15:21:20;7.35;;;4.15;;
37647;SDS011;23490;53.656;10.076;2022-08-06T15:23:45;8.10;;;4.70;;
37647;SDS011;23490;53.656;10.076;2022-08-06T15:26:11;7.90;;;4.07;;
37647;SDS011;23490;53.656;10.076;2022-08-06T15:28:37;7.35;;;3.90;;
37647;SDS011;23490;53.656;10.076;2022-08-06T15:31:03;5.90;;;4.22;;
37647;SDS011;23490;53.656;10.076;2022-08-06T15:33:28;6.60;;;4.28;;
37647;SDS011;23490;53.656;10.076;2022-08-06T15:35:54;7.30;;;4.00;;
37647;SDS011;23490;53.656;10.076;2022-08-06T15:38:20;6.93;;;4.10;;
37647;SDS011;23490;53.656;10.076;2022-08-06T15:40:46;6.97;;;3.95;;
37647;SDS011;23490;53.656;10.076;2022-08-06T15:43:12;7.85;;;3.83;;
37647;SDS011;23490;53.656;10.076;2022-08-06T15:45:38;6.38;;;4.00;;
37647;SDS011;23490;53.656;10.076;2022-08-06T15:48:03;8.25;;;5.00;;
37647;SDS011;23490;53.656;10.076;2022-08-06T15:50:29;8.73;;;4.43;;